This is the latest recevied weather packets stored in our database for station/object OE5RBO. If no packets are shown the sender has not sent any weather packets the latest 10 day(s).
| Time | Temp. | Humidity | Pressure | Rain* | Wind** | Luminosity | Snow |
|---|---|---|---|---|---|---|---|
| 1777886867 | 22.22° C | 55% | 1014.2 hPa | 0 mm | - | - | - |
| 1777886266 | 23.89° C | 50% | 1014.2 hPa | 0 mm | - | - | - |
| 1777885666 | 23.89° C | 52% | 1014.4 hPa | 0 mm | - | - | - |
| 1777885066 | 22.22° C | 52% | 1014.5 hPa | 0 mm | - | - | - |
| 1777883865 | 21.67° C | 54% | 1014.7 hPa | 0 mm | - | - | - |
| 1777883265 | 21.11° C | 56% | 1014.7 hPa | 0 mm | - | - | - |
| 1777882664 | 21.67° C | 57% | 1014.7 hPa | 0 mm | - | - | - |
| 1777882064 | 20.56° C | 58% | 1014.8 hPa | 0 mm | - | - | - |
| 1777881464 | 22.22° C | 53% | 1014.8 hPa | 0 mm | - | - | - |
| 1777880863 | 22.78° C | 55% | 1014.7 hPa | 0 mm | - | - | - |
| 1777880263 | 22.22° C | 54% | 1014.8 hPa | 0 mm | - | - | - |
| 1777879062 | 20° C | 59% | 1014.7 hPa | 0 mm | - | - | - |
| 1777877861 | 19.44° C | 59% | 1014.7 hPa | 0 mm | - | - | - |
| 1777877261 | 19.44° C | 59% | 1014.7 hPa | 0 mm | - | - | - |
| 1777876661 | 18.89° C | 64% | 1014.8 hPa | 0 mm | - | - | - |
| 1777876060 | 18.89° C | 64% | 1014.8 hPa | 0 mm | - | - | - |
| 1777874859 | 19.44° C | 62% | 1014.7 hPa | 0 mm | - | - | - |
| 1777874259 | 18.89° C | 65% | 1014.7 hPa | 0 mm | - | - | - |
| 1777873659 | 17.78° C | 67% | 1014.7 hPa | 0 mm | - | - | - |
| 1777873058 | 16.67° C | 70% | 1014.6 hPa | 0 mm | - | - | - |
| 1777872458 | 16.67° C | 70% | 1014.5 hPa | 0 mm | - | - | - |
| 1777871858 | 16.67° C | 72% | 1014.4 hPa | 0 mm | - | - | - |
| 1777871257 | 16.11° C | 74% | 1014.4 hPa | 0 mm | - | - | - |
| 1777870657 | 15.56° C | 75% | 1014.4 hPa | 0 mm | - | - | - |
| 1777870057 | 15.56° C | 76% | 1014.5 hPa | 0 mm | - | - | - |
* Rain since midnight (hover to see other rain measurements)
** Current wind speed in m/s (hover to see current wind gust speed)